createdAt,value
2023-03-06T00:01:47.875Z,100492.22
2023-03-06T00:04:14.968Z,100487.53
2023-03-06T00:06:40.836Z,100482.03
2023-03-06T00:09:07.004Z,100483.16
2023-03-06T00:11:32.653Z,100478.47
2023-03-06T00:13:58.350Z,100483.97
2023-03-06T00:16:24.104Z,100474.06
2023-03-06T00:18:50.062Z,100470.19
2023-03-06T00:21:15.711Z,100467.44
2023-03-06T00:23:41.374Z,100471.03
2023-03-06T00:26:07.995Z,100468.28
2023-03-06T00:28:34.282Z,100467.44
2023-03-06T00:31:00.504Z,100461.13
2023-03-06T00:33:26.140Z,100460.31
2023-03-06T00:35:51.856Z,100464.69
2023-03-06T00:38:17.501Z,100456.44
2023-03-06T00:40:43.340Z,100456.44
2023-03-06T00:43:09.203Z,100438.28
2023-03-06T00:45:34.983Z,100434.41
2023-03-06T00:48:00.659Z,100441.84
2023-03-06T00:50:26.324Z,100432.47
2023-03-06T00:52:51.960Z,100433.59
2023-03-06T00:55:17.680Z,100433.59
2023-03-06T00:57:43.317Z,100422.88
2023-03-06T01:00:10.236Z,100430.03
2023-03-06T01:02:35.976Z,100427.25
2023-03-06T01:05:01.779Z,100420.66
2023-03-06T01:07:27.777Z,100419.00
2023-03-06T01:09:53.509Z,100415.97
2023-03-06T01:12:20.473Z,100405.25
2023-03-06T01:14:47.050Z,100408.00
2023-03-06T01:17:13.281Z,100406.06
2023-03-06T01:19:38.949Z,100402.50
2023-03-06T01:22:04.619Z,100398.91
2023-03-06T01:24:30.260Z,100402.50
2023-03-06T01:26:55.906Z,100406.06
2023-03-06T01:29:21.570Z,100396.97
2023-03-06T01:31:47.251Z,100396.97
2023-03-06T01:34:12.977Z,100395.06
2023-03-06T01:36:38.621Z,100380.47
2023-03-06T01:39:04.264Z,100389.53
2023-03-06T01:41:31.770Z,100384.88
2023-03-06T01:43:57.459Z,100377.72
2023-03-06T01:46:41.472Z,100372.22
2023-03-06T01:49:12.224Z,100370.28
2023-03-06T01:51:40.721Z,100367.53
2023-03-06T01:54:08.360Z,100365.88
2023-03-06T01:56:34.299Z,100369.47
2023-03-06T01:59:00.693Z,100365.06
2023-03-06T02:01:26.476Z,100362.84
2023-03-06T02:03:52.340Z,100355.69
2023-03-06T02:06:20.901Z,100353.75
2023-03-06T02:08:49.219Z,100352.94
2023-03-06T02:11:17.412Z,100351.31
2023-03-06T02:13:44.252Z,100343.03
2023-03-06T02:16:10.765Z,100348.53
2023-03-06T02:18:37.573Z,100343.03
2023-03-06T02:21:06.837Z,100347.44
2023-03-06T02:23:44.366Z,100347.44
2023-03-06T02:26:10.644Z,100343.88
2023-03-06T02:28:36.306Z,100335.91
2023-03-06T02:31:02.013Z,100340.28
2023-03-06T02:33:28.430Z,100332.84
2023-03-06T02:35:57.694Z,100335.59
2023-03-06T02:38:27.075Z,100341.09
2023-03-06T02:40:52.958Z,100340.28
2023-03-06T02:43:24.765Z,100327.34
2023-03-06T02:45:51.065Z,100329.28
2023-03-06T02:48:17.782Z,100333.97
2023-03-06T02:50:44.184Z,100332.03
2023-03-06T02:53:12.206Z,100323.78
2023-03-06T02:55:38.468Z,100329.28
2023-03-06T02:58:04.702Z,100326.53
2023-03-06T03:00:31.122Z,100332.03
2023-03-06T03:02:56.852Z,100326.53
2023-03-06T03:05:22.655Z,100323.78
2023-03-06T03:07:48.300Z,100322.94
2023-03-06T03:10:14.259Z,100320.19
2023-03-06T03:12:40.516Z,100320.19
2023-03-06T03:15:06.697Z,100313.88
2023-03-06T03:17:35.050Z,100317.44
2023-03-06T03:20:00.699Z,100317.44
2023-03-06T03:22:26.336Z,100311.94
2023-03-06T03:24:52.097Z,100308.38
2023-03-06T03:27:17.802Z,100311.13
2023-03-06T03:29:43.539Z,100310.00
2023-03-06T03:32:09.350Z,100308.38
2023-03-06T03:34:35.064Z,100303.69
2023-03-06T03:37:00.697Z,100299.25
2023-03-06T03:39:26.358Z,100309.19
2023-03-06T03:41:51.999Z,100300.13
2023-03-06T03:44:17.662Z,100295.44
2023-03-06T03:46:43.347Z,100285.50
2023-03-06T03:49:09.028Z,100284.69
2023-03-06T03:51:34.764Z,100277.25
2023-03-06T03:54:00.486Z,100275.34
2023-03-06T03:56:26.278Z,100269.84
2023-03-06T03:58:52.001Z,100269.84
2023-03-06T04:01:17.707Z,100267.09
2023-03-06T04:03:43.381Z,100261.56
2023-03-06T04:06:09.328Z,100261.56
2023-03-06T04:08:35.017Z,100267.91
2023-03-06T04:11:00.723Z,100257.97
2023-03-06T04:13:26.551Z,100268.97
2023-03-06T04:15:54.067Z,100262.41
2023-03-06T04:18:20.589Z,100253.31
2023-03-06T04:20:46.851Z,100251.66
2023-03-06T04:23:13.062Z,100241.47
2023-03-06T04:25:38.762Z,100244.50
2023-03-06T04:28:05.017Z,100239.81
2023-03-06T04:30:30.975Z,100236.25
2023-03-06T04:32:56.845Z,100237.06
2023-03-06T04:35:22.517Z,100225.25
2023-03-06T04:37:48.283Z,100227.69
2023-03-06T04:40:19.549Z,100228.81
2023-03-06T04:42:45.438Z,100228.00
2023-03-06T04:45:11.207Z,100226.88
2023-03-06T04:47:36.873Z,100227.69
2023-03-06T04:50:03.623Z,100217.81
2023-03-06T04:52:29.334Z,100218.63
2023-03-06T04:54:55.037Z,100219.72
2023-03-06T04:57:21.271Z,100224.41
2023-03-06T04:59:47.393Z,100216.97
2023-03-06T05:02:13.086Z,100221.66
2023-03-06T05:04:38.753Z,100220.56
2023-03-06T05:07:04.423Z,100219.72
2023-03-06T05:09:30.088Z,100220.56
2023-03-06T05:11:55.747Z,100219.72
2023-03-06T05:14:21.400Z,100226.88
2023-03-06T05:16:47.071Z,100221.66
2023-03-06T05:19:12.746Z,100228.00
2023-03-06T05:21:38.429Z,100221.38
2023-03-06T05:24:04.254Z,100228.00
2023-03-06T05:26:29.917Z,100218.09
2023-03-06T05:28:55.579Z,100222.47
2023-03-06T05:31:21.341Z,100220.56
2023-03-06T05:33:47.004Z,100221.66
2023-03-06T05:36:12.706Z,100219.72
2023-03-06T05:38:38.364Z,100217.28
2023-03-06T05:41:04.280Z,100222.47
2023-03-06T05:43:29.915Z,100215.34
2023-03-06T05:46:04.233Z,100218.91
2023-03-06T05:48:30.479Z,100218.91
2023-03-06T05:50:57.453Z,100218.09
2023-03-06T05:53:23.452Z,100218.91
2023-03-06T05:55:55.566Z,100213.41
2023-03-06T05:58:21.203Z,100209.03
2023-03-06T06:00:46.850Z,100205.97
2023-03-06T06:03:12.508Z,100207.91
2023-03-06T06:05:38.989Z,100207.91
2023-03-06T06:08:04.696Z,100205.97
2023-03-06T06:10:30.346Z,100196.06
2023-03-06T06:12:56.000Z,100201.59
2023-03-06T06:15:21.658Z,100201.59
2023-03-06T06:17:47.292Z,100207.09
2023-03-06T06:20:13.467Z,100205.97
2023-03-06T06:22:39.106Z,100208.19
2023-03-06T06:25:05.792Z,100207.91
2023-03-06T06:27:31.517Z,100209.84
2023-03-06T06:29:57.162Z,100205.16
2023-03-06T06:32:22.853Z,100201.84
2023-03-06T06:34:48.523Z,100205.16
2023-03-06T06:37:15.308Z,100200.47
2023-03-06T06:39:40.986Z,100206.78
2023-03-06T06:42:28.924Z,100208.72
2023-03-06T06:44:53.322Z,100203.22
2023-03-06T06:47:22.743Z,100206.78
2023-03-06T06:49:51.934Z,100204.03
2023-03-06T06:52:17.915Z,100208.72
2023-03-06T06:54:44.006Z,100201.59
2023-03-06T06:57:10.899Z,100211.47
2023-03-06T06:59:36.752Z,100216.16
2023-03-06T07:02:02.405Z,100209.84
2023-03-06T07:04:28.080Z,100214.22
2023-03-06T07:06:57.308Z,100214.22
2023-03-06T07:09:23.344Z,100216.97
2023-03-06T07:11:49.441Z,100210.66
2023-03-06T07:14:15.151Z,100222.47
2023-03-06T07:16:40.812Z,100216.97
2023-03-06T07:19:06.852Z,100217.81
2023-03-06T07:21:32.612Z,100218.91
2023-03-06T07:23:58.297Z,100211.47
2023-03-06T07:26:24.979Z,100217.81
2023-03-06T07:28:53.138Z,100217.81
2023-03-06T07:31:21.363Z,100215.34
2023-03-06T07:33:48.347Z,100215.34
2023-03-06T07:36:14.255Z,100216.97
2023-03-06T07:38:40.031Z,100219.72
2023-03-06T07:41:08.760Z,100216.16
2023-03-06T07:43:34.520Z,100219.72
2023-03-06T07:46:00.378Z,100216.97
2023-03-06T07:48:26.673Z,100213.41
2023-03-06T07:50:56.945Z,100211.47
2023-03-06T07:53:23.854Z,100216.69
2023-03-06T07:55:49.807Z,100218.88
2023-03-06T07:58:15.476Z,100219.69
2023-03-06T08:00:41.180Z,100216.94
2023-03-06T08:03:08.912Z,100219.16
2023-03-06T08:05:34.598Z,100206.53
2023-03-06T08:08:00.235Z,100208.16
2023-03-06T08:10:25.923Z,100211.72
2023-03-06T08:12:51.587Z,100208.16
2023-03-06T08:15:17.273Z,100207.88
2023-03-06T08:17:43.148Z,100205.94
2023-03-06T08:20:09.730Z,100208.69
2023-03-06T08:22:36.032Z,100206.75
2023-03-06T08:25:01.900Z,100206.75
2023-03-06T08:27:27.581Z,100204.00
2023-03-06T08:29:53.233Z,100201.25
2023-03-06T08:32:18.975Z,100203.72
2023-03-06T08:34:44.805Z,100207.28
2023-03-06T08:37:10.757Z,100211.97
2023-03-06T08:39:36.425Z,100204.00
2023-03-06T08:42:02.064Z,100206.19
2023-03-06T08:44:27.733Z,100197.09
2023-03-06T08:46:53.389Z,100198.75
2023-03-06T08:49:19.239Z,100189.66
2023-03-06T08:51:44.909Z,100199.56
2023-03-06T08:54:12.086Z,100198.19
2023-03-06T08:56:37.936Z,100192.66
2023-03-06T08:59:04.721Z,100195.13
2023-03-06T09:01:34.210Z,100200.63
2023-03-06T09:04:01.596Z,100200.94
2023-03-06T09:06:30.206Z,100202.56
2023-03-06T09:08:56.237Z,100197.88
2023-03-06T09:11:24.108Z,100202.25
2023-03-06T09:13:50.602Z,100201.75
2023-03-06T09:16:16.461Z,100207.56
2023-03-06T09:18:42.177Z,100207.25
2023-03-06T09:21:08.644Z,100212.53
2023-03-06T09:23:35.118Z,100209.50
2023-03-06T09:26:01.344Z,100214.41
2023-03-06T09:28:27.080Z,100213.56
2023-03-06T09:30:53.040Z,100210.81
2023-03-06T09:33:19.336Z,100211.94
2023-03-06T09:35:54.231Z,100209.19
2023-03-06T09:38:22.649Z,100216.34
2023-03-06T09:44:05.334Z,100222.66
2023-03-06T09:47:10.834Z,100216.03
2023-03-06T09:49:42.385Z,100212.50
2023-03-06T09:52:30.496Z,100207.28
2023-03-06T09:55:07.054Z,100219.09
2023-03-06T09:57:36.202Z,100223.22
2023-03-06T10:00:06.667Z,100217.69
2023-03-06T10:02:38.087Z,100219.34
2023-03-06T10:05:06.121Z,100223.72
2023-03-06T10:07:42.554Z,100216.28
2023-03-06T10:10:15.416Z,100209.16
2023-03-06T10:12:47.466Z,100204.44
2023-03-06T10:15:19.063Z,100215.19
2023-03-06T10:17:44.867Z,100217.94
2023-03-06T10:20:27.909Z,100214.09
2023-03-06T10:23:10.485Z,100216.84
2023-03-06T10:25:45.958Z,100214.09
2023-03-06T10:28:16.212Z,100205.53
2023-03-06T10:30:58.016Z,100214.09
2023-03-06T10:33:33.031Z,100214.59
2023-03-06T10:35:58.762Z,100208.56
2023-03-06T10:38:36.570Z,100214.34
2023-03-06T10:46:38.380Z,100215.41
2023-03-06T10:49:09.712Z,100213.47
2023-03-06T10:51:35.516Z,100213.47
2023-03-06T10:54:15.967Z,100217.59
2023-03-06T10:56:43.831Z,100214.56
2023-03-06T10:59:14.511Z,100213.47
2023-03-06T11:01:42.002Z,100222.81
2023-03-06T11:04:29.622Z,100226.69
2023-03-06T11:07:17.243Z,100230.78
2023-03-06T11:09:47.254Z,100216.22
2023-03-06T11:15:24.518Z,100220.63
2023-03-06T11:17:54.577Z,100229.69
2023-03-06T11:23:05.280Z,100227.75
2023-03-06T11:25:35.128Z,100229.69
2023-03-06T11:28:05.605Z,100223.91
2023-03-06T11:30:38.299Z,100223.06
2023-03-06T11:33:13.884Z,100221.16
2023-03-06T11:35:53.740Z,100212.06
2023-03-06T11:38:25.599Z,100215.66
2023-03-06T11:40:53.770Z,100221.16
2023-03-06T11:43:24.911Z,100224.75
2023-03-06T11:45:57.436Z,100221.16
2023-03-06T11:48:28.803Z,100209.06
2023-03-06T11:51:03.252Z,100209.88
2023-03-06T11:53:35.015Z,100203.78
2023-03-06T11:59:25.997Z,100199.97
2023-03-06T12:05:02.762Z,100201.88
2023-03-06T12:07:32.331Z,100183.16
2023-03-06T12:10:18.703Z,100183.97
2023-03-06T12:13:16.008Z,100185.63
2023-03-06T12:16:05.154Z,100184.50
2023-03-06T12:19:01.349Z,100186.44
2023-03-06T12:21:55.690Z,100182.84
2023-03-06T12:24:42.589Z,100173.78
2023-03-06T12:27:16.892Z,100169.91
2023-03-06T12:29:59.520Z,100173.47
2023-03-06T12:32:44.173Z,100168.81
2023-03-06T12:35:23.080Z,100167.97
2023-03-06T12:40:49.781Z,100166.88
2023-03-06T12:43:40.648Z,100159.97
2023-03-06T12:46:13.459Z,100157.19
2023-03-06T12:48:41.193Z,100148.66
2023-03-06T12:51:08.810Z,100152.50
2023-03-06T12:53:35.293Z,100145.06
2023-03-06T12:56:01.744Z,100142.31
2023-03-06T13:01:15.758Z,100145.91
2023-03-06T13:04:19.261Z,100137.88
2023-03-06T13:07:10.776Z,100145.84
2023-03-06T13:10:13.195Z,100138.16
2023-03-06T13:13:00.270Z,100138.97
2023-03-06T13:15:45.079Z,100134.59
2023-03-06T13:21:44.187Z,100132.59
2023-03-06T13:24:22.844Z,100136.47
2023-03-06T13:26:58.257Z,100132.09
2023-03-06T13:32:17.322Z,100115.81
2023-03-06T13:34:49.176Z,100122.19
2023-03-06T13:42:31.022Z,100117.19
2023-03-06T13:44:57.425Z,100124.34
2023-03-06T13:47:31.686Z,100117.19
2023-03-06T13:49:58.232Z,100124.34
2023-03-06T13:55:12.447Z,100119.94
2023-03-06T13:58:02.963Z,100115.25
2023-03-06T14:00:52.364Z,100102.28
2023-03-06T14:03:47.627Z,100101.78
2023-03-06T14:06:37.593Z,100103.13
2023-03-06T14:09:06.721Z,100099.84
2023-03-06T14:11:33.348Z,100096.78
2023-03-06T14:13:59.133Z,100094.03
2023-03-06T14:16:32.660Z,100093.75
2023-03-06T14:19:03.103Z,100087.72
2023-03-06T14:21:31.531Z,100087.72
2023-03-06T14:24:01.017Z,100084.13
2023-03-06T14:26:28.285Z,100082.19
2023-03-06T14:28:58.336Z,100079.13
2023-03-06T14:31:27.179Z,100083.84
2023-03-06T14:33:55.648Z,100082.50
2023-03-06T14:36:22.025Z,100077.00
2023-03-06T14:38:53.146Z,100078.94
2023-03-06T14:41:25.125Z,100081.22
2023-03-06T14:43:50.939Z,100081.88
2023-03-06T14:46:20.219Z,100081.78
2023-03-06T14:48:46.963Z,100077.31
2023-03-06T14:51:16.742Z,100078.38
2023-03-06T14:53:44.832Z,100074.50
2023-03-06T14:56:15.894Z,100080.03
2023-03-06T15:01:33.452Z,100065.97
2023-03-06T15:04:00.133Z,100059.66
2023-03-06T15:06:33.183Z,100061.28
2023-03-06T15:09:07.996Z,100064.84
2023-03-06T15:12:07.669Z,100049.44
2023-03-06T15:14:36.486Z,100059.03
2023-03-06T15:19:57.234Z,100061.78
2023-03-06T15:22:34.155Z,100053.53
2023-03-06T15:25:21.361Z,100050.78
2023-03-06T15:27:49.655Z,100053.53
2023-03-06T15:30:32.498Z,100048.84
2023-03-06T15:33:22.110Z,100052.13
2023-03-06T15:36:17.769Z,100051.59
2023-03-06T15:38:44.761Z,100041.13
2023-03-06T15:41:31.478Z,100046.09
2023-03-06T15:43:57.875Z,100043.88
2023-03-06T15:46:23.574Z,100043.06
2023-03-06T15:48:54.123Z,100042.75
2023-03-06T15:51:19.807Z,100042.75
2023-03-06T15:53:45.500Z,100048.25
2023-03-06T15:56:11.892Z,100043.88
2023-03-06T15:58:38.401Z,100038.38
2023-03-06T16:01:04.557Z,100030.41
2023-03-06T16:03:30.393Z,100028.47
2023-03-06T16:05:56.027Z,100021.03
2023-03-06T16:08:21.678Z,100015.50
2023-03-06T16:10:47.688Z,100022.66
2023-03-06T16:13:19.177Z,100019.09
2023-03-06T16:15:46.992Z,100013.56
2023-03-06T16:18:12.640Z,100007.25
2023-03-06T16:20:39.288Z,100010.81
2023-03-06T16:23:09.544Z,100010.28
2023-03-06T16:25:37.359Z,100013.03
2023-03-06T16:28:04.036Z,100007.53
2023-03-06T16:30:32.425Z,100009.19
2023-03-06T16:32:58.044Z,100006.44
2023-03-06T16:35:24.036Z,100007.53
2023-03-06T16:37:49.806Z,99999.25
2023-03-06T16:40:28.238Z,100007.25
2023-03-06T16:42:55.284Z,100011.13
2023-03-06T16:45:22.405Z,99997.63
2023-03-06T16:47:48.280Z,100003.13
2023-03-06T16:50:22.432Z,99994.59
2023-03-06T16:52:48.447Z,99991.84
2023-03-06T16:55:14.191Z,99988.25
2023-03-06T16:57:39.846Z,99989.09
2023-03-06T17:00:06.161Z,99994.59
2023-03-06T17:02:32.078Z,99993.75
2023-03-06T17:04:57.744Z,99982.72
2023-03-06T17:07:23.405Z,99985.47
2023-03-06T17:09:49.187Z,99987.41
2023-03-06T17:12:15.054Z,99976.41
2023-03-06T17:14:40.788Z,99970.91
2023-03-06T17:17:06.548Z,99965.38
2023-03-06T17:19:32.194Z,99971.19
2023-03-06T17:21:57.831Z,99965.69
2023-03-06T17:24:23.484Z,99962.94
2023-03-06T17:26:49.129Z,99958.56
2023-03-06T17:29:15.116Z,99965.69
2023-03-06T17:31:40.803Z,99962.13
2023-03-06T17:34:07.078Z,99964.06
2023-03-06T17:36:32.757Z,99967.94
2023-03-06T17:38:59.832Z,99970.38
2023-03-06T17:41:25.699Z,99966.00
2023-03-06T17:43:52.270Z,99970.38
2023-03-06T17:46:18.336Z,99960.50
2023-03-06T17:48:44.213Z,99963.25
2023-03-06T17:51:10.595Z,99956.91
2023-03-06T17:53:36.963Z,99964.34
2023-03-06T17:56:04.502Z,99960.75
2023-03-06T17:58:30.157Z,99963.53
2023-03-06T18:00:55.801Z,99958.00
2023-03-06T18:03:21.525Z,99958.00
2023-03-06T18:05:47.499Z,99953.31
2023-03-06T18:08:13.291Z,99952.50
2023-03-06T18:10:40.165Z,99959.94
2023-03-06T18:13:06.512Z,99954.44
2023-03-06T18:15:32.178Z,99950.88
2023-03-06T18:17:58.361Z,99953.31
2023-03-06T18:20:24.567Z,99952.81
2023-03-06T18:22:50.214Z,99942.59
2023-03-06T18:25:16.602Z,99945.38
2023-03-06T18:27:42.305Z,99940.66
2023-03-06T18:30:08.809Z,99942.59
2023-03-06T18:32:34.583Z,99940.66
2023-03-06T18:35:00.269Z,99934.34
2023-03-06T18:37:25.909Z,99934.34
2023-03-06T18:39:51.554Z,99925.25
2023-03-06T18:42:17.631Z,99930.78
2023-03-06T18:44:46.863Z,99930.78
2023-03-06T18:47:13.943Z,99922.50
2023-03-06T18:49:40.577Z,99918.13
2023-03-06T18:52:07.085Z,99918.13
2023-03-06T18:54:32.764Z,99919.75
2023-03-06T18:56:58.406Z,99915.38
2023-03-06T18:59:25.062Z,99912.63
2023-03-06T19:01:56.527Z,99910.94
2023-03-06T19:04:23.324Z,99895.28
2023-03-06T19:06:49.074Z,99908.19
2023-03-06T19:09:14.718Z,99904.63
2023-03-06T19:11:41.883Z,99901.88
2023-03-06T19:14:07.810Z,99899.13
2023-03-06T19:16:34.147Z,99899.13
2023-03-06T19:18:59.827Z,99890.03
2023-03-06T19:21:26.734Z,99885.34
2023-03-06T19:23:52.721Z,99897.19
2023-03-06T19:26:18.608Z,99887.00
2023-03-06T19:28:45.069Z,99884.53
2023-03-06T19:31:13.674Z,99885.66
2023-03-06T19:33:39.826Z,99890.84
2023-03-06T19:36:07.023Z,99885.66
2023-03-06T19:38:32.763Z,99882.91
2023-03-06T19:40:59.667Z,99882.91
2023-03-06T19:43:26.146Z,99872.72
2023-03-06T19:45:51.867Z,99871.88
2023-03-06T19:48:17.547Z,99863.94
2023-03-06T19:50:43.183Z,99866.38
2023-03-06T19:53:10.236Z,99858.94
2023-03-06T19:55:36.886Z,99860.38
2023-03-06T19:58:03.091Z,99859.25
2023-03-06T20:00:29.026Z,99859.25
2023-03-06T20:02:55.021Z,99845.75
2023-03-06T20:05:20.719Z,99842.72
2023-03-06T20:07:46.418Z,99839.16
2023-03-06T20:10:12.052Z,99830.88
2023-03-06T20:12:37.997Z,99830.88
2023-03-06T20:15:03.968Z,99819.06
2023-03-06T20:17:31.837Z,99827.31
2023-03-06T20:19:57.511Z,99819.88
2023-03-06T20:22:23.155Z,99819.06
2023-03-06T20:24:48.791Z,99815.47
2023-03-06T20:27:14.435Z,99813.56
2023-03-06T20:29:43.807Z,99819.06
2023-03-06T20:32:09.877Z,99813.84
2023-03-06T20:34:38.118Z,99804.44
2023-03-06T20:37:04.993Z,99800.88
2023-03-06T20:39:30.640Z,99801.69
2023-03-06T20:41:58.195Z,99802.81
2023-03-06T20:44:23.834Z,99789.03
2023-03-06T20:46:51.139Z,99795.38
2023-03-06T20:49:17.869Z,99789.03
2023-03-06T20:51:43.909Z,99795.69
2023-03-06T20:54:12.282Z,99791.78
2023-03-06T20:56:38.807Z,99786.28
2023-03-06T20:59:05.069Z,99793.44
2023-03-06T21:01:32.603Z,99779.97
2023-03-06T21:03:58.851Z,99781.91
2023-03-06T21:06:25.565Z,99778.84
2023-03-06T21:08:51.288Z,99777.22
2023-03-06T21:11:17.319Z,99768.94
2023-03-06T21:13:43.032Z,99774.47
2023-03-06T21:16:11.316Z,99770.91
2023-03-06T21:18:37.047Z,99771.72
2023-03-06T21:21:07.165Z,99768.94
2023-03-06T21:23:32.895Z,99762.63
2023-03-06T21:25:58.699Z,99761.81
2023-03-06T21:28:24.395Z,99753.56
2023-03-06T21:30:50.052Z,99755.50
2023-03-06T21:33:16.110Z,99745.28
2023-03-06T21:35:44.460Z,99743.34
2023-03-06T21:38:10.772Z,99740.59
2023-03-06T21:40:36.822Z,99729.91
2023-03-06T21:43:03.162Z,99733.47
2023-03-06T21:45:29.528Z,99736.50
2023-03-06T21:47:56.886Z,99729.91
2023-03-06T21:50:22.936Z,99724.38
2023-03-06T21:52:49.236Z,99716.13
2023-03-06T21:55:15.326Z,99706.22
2023-03-06T21:57:41.355Z,99713.38
2023-03-06T22:00:10.321Z,99704.28
2023-03-06T22:02:36.949Z,99706.22
2023-03-06T22:05:03.280Z,99704.28
2023-03-06T22:07:28.970Z,99695.19
2023-03-06T22:09:54.601Z,99687.75
2023-03-06T22:12:21.004Z,99685.00
2023-03-06T22:14:46.658Z,99682.53
2023-03-06T22:17:12.805Z,99681.44
2023-03-06T22:19:38.674Z,99669.56
2023-03-06T22:22:04.437Z,99664.91
2023-03-06T22:24:31.099Z,99664.91
2023-03-06T22:26:56.828Z,99660.22
2023-03-06T22:29:23.240Z,99662.16
2023-03-06T22:31:49.376Z,99656.66
2023-03-06T22:34:15.386Z,99655.81
2023-03-06T22:36:41.420Z,99651.41
2023-03-06T22:39:07.144Z,99647.53
2023-03-06T22:41:32.790Z,99643.16
2023-03-06T22:44:00.470Z,99643.16
2023-03-06T22:46:26.618Z,99634.91
2023-03-06T22:48:52.392Z,99638.47
2023-03-06T22:51:19.905Z,99629.38
2023-03-06T22:53:46.404Z,99621.13
2023-03-06T22:56:14.384Z,99620.31
2023-03-06T22:58:40.079Z,99621.94
2023-03-06T23:01:07.776Z,99616.75
2023-03-06T23:03:35.734Z,99610.13
2023-03-06T23:06:04.996Z,99612.06
2023-03-06T23:08:30.636Z,99614.81
2023-03-06T23:10:56.271Z,99610.13
2023-03-06T23:13:22.318Z,99605.75
2023-03-06T23:15:47.969Z,99604.59
2023-03-06T23:18:13.622Z,99606.56
2023-03-06T23:20:42.660Z,99601.03
2023-03-06T23:23:08.680Z,99609.31
2023-03-06T23:25:34.382Z,99603.78
2023-03-06T23:28:00.051Z,99597.47
2023-03-06T23:30:25.862Z,99596.66
2023-03-06T23:32:51.502Z,99603.78
2023-03-06T23:35:17.149Z,99598.59
2023-03-06T23:37:42.855Z,99590.34
2023-03-06T23:40:09.928Z,99587.59
2023-03-06T23:42:35.707Z,99587.59
2023-03-06T23:45:01.430Z,99584.53
2023-03-06T23:47:31.160Z,99584.00
2023-03-06T23:49:56.800Z,99585.66
2023-03-06T23:52:22.481Z,99575.72
2023-03-06T23:54:49.261Z,99578.50
2023-03-06T23:57:15.284Z,99584.00
2023-03-06T23:59:42.501Z,99584.00
